createdAt,value
2023-09-06T00:00:10.066Z,14.6
2023-09-06T00:06:04.388Z,14.6
2023-09-06T00:11:56.608Z,14.4
2023-09-06T00:17:49.283Z,14.3
2023-09-06T00:23:41.896Z,14.2
2023-09-06T00:29:34.003Z,14.1
2023-09-06T00:35:26.606Z,14
2023-09-06T00:41:19.742Z,13.9
2023-09-06T00:47:11.692Z,13.9
2023-09-06T00:53:03.524Z,13.9
2023-09-06T00:58:55.080Z,14
2023-09-06T01:04:48.910Z,13.9
2023-09-06T01:10:40.072Z,13.9
2023-09-06T01:16:32.176Z,13.9
2023-09-06T01:22:25.116Z,13.9
2023-09-06T01:28:17.275Z,14
2023-09-06T01:34:11.132Z,14.1
2023-09-06T01:40:02.734Z,14.1
2023-09-06T01:45:54.581Z,14.2
2023-09-06T01:51:47.585Z,14.3
2023-09-06T01:57:39.167Z,14.3
2023-09-06T02:03:00.759Z,14.3
2023-09-06T02:08:53.646Z,14.4
2023-09-06T02:14:45.322Z,14.4
2023-09-06T02:20:22.870Z,14.4
2023-09-06T02:26:14.947Z,14.4
2023-09-06T02:32:06.746Z,14.4
2023-09-06T02:37:58.127Z,14.5
2023-09-06T02:43:51.352Z,14.5
2023-09-06T02:49:43.460Z,14.6
2023-09-06T02:55:36.138Z,14.5
2023-09-06T03:01:29.001Z,14.5
2023-09-06T03:07:21.030Z,14.5
2023-09-06T03:13:13.172Z,14.5
2023-09-06T03:19:07.623Z,14.4
2023-09-06T03:24:59.042Z,14.4
2023-09-06T03:30:51.305Z,14.4
2023-09-06T03:36:44.142Z,14.4
2023-09-06T03:42:37.183Z,14.4
2023-09-06T03:48:30.233Z,14.5
2023-09-06T03:54:08.032Z,14.6
2023-09-06T03:59:59.943Z,14.7
2023-09-06T04:05:54.314Z,14.8
2023-09-06T04:11:48.959Z,14.9
2023-09-06T04:17:41.368Z,14.9
2023-09-06T04:23:33.132Z,15.1
2023-09-06T04:29:26.212Z,15.2
2023-09-06T04:35:18.479Z,15.3
2023-09-06T04:41:09.823Z,15.4
2023-09-06T04:47:02.448Z,15.6
2023-09-06T04:52:43.378Z,15.7
2023-09-06T04:58:35.960Z,15.9
2023-09-06T05:04:29.247Z,16.3
2023-09-06T05:10:21.403Z,16.6
2023-09-06T05:16:13.425Z,16.9
2023-09-06T05:22:06.230Z,17.3
2023-09-06T05:27:42.145Z,17.6
2023-09-06T05:33:18.404Z,18
2023-09-06T05:44:49.238Z,19.4
2023-09-06T05:51:03.088Z,20.4
2023-09-06T05:56:57.586Z,21.2
2023-09-06T06:02:49.446Z,22
2023-09-06T06:08:41.125Z,22.9
2023-09-06T06:14:44.797Z,23.9
2023-09-06T06:20:44.299Z,24.8
2023-09-06T06:26:36.358Z,26
2023-09-06T06:32:30.991Z,27.8
2023-09-06T06:38:25.297Z,28.8
2023-09-06T06:44:17.159Z,30.1
2023-09-06T06:50:10.508Z,31.1
2023-09-06T06:56:06.483Z,31.4
2023-09-06T07:01:58.716Z,31.7
2023-09-06T07:07:51.488Z,33.4
2023-09-06T07:13:43.606Z,39.4
2023-09-06T07:19:41.236Z,42.7
2023-09-06T07:25:32.937Z,47.4
2023-09-06T07:31:24.344Z,49.3
2023-09-06T07:37:18.596Z,41.9
2023-09-06T07:43:11.306Z,40.3
2023-09-06T07:49:04.676Z,40.4
2023-09-06T07:54:57.763Z,42.8
2023-09-06T08:00:56.542Z,44.6
2023-09-06T08:06:57.609Z,46.1
2023-09-06T08:12:50.140Z,49.1
2023-09-06T08:18:30.429Z,53.7
2023-09-06T08:24:36.476Z,49.5
2023-09-06T08:30:29.671Z,50.9
2023-09-06T08:36:24.898Z,52.3
2023-09-06T08:42:16.909Z,52.6
2023-09-06T08:47:53.851Z,52.6
2023-09-06T08:53:48.851Z,54.4
2023-09-06T08:59:27.029Z,50.3
2023-09-06T09:05:37.281Z,47.7
2023-09-06T09:11:30.266Z,53.8
2023-09-06T09:17:23.569Z,51.3
2023-09-06T09:23:34.365Z,44.8
2023-09-06T09:29:27.599Z,44.8
2023-09-06T09:35:20.740Z,45.4
2023-09-06T09:41:15.807Z,45.8
2023-09-06T09:47:12.629Z,46.2
2023-09-06T09:53:39.957Z,45.8
2023-09-06T09:59:31.452Z,45.3
2023-09-06T10:05:20.037Z,44.3
2023-09-06T10:11:28.582Z,42.6
2023-09-06T10:17:22.510Z,41.6
2023-09-06T10:23:33.057Z,40.4
2023-09-06T10:29:26.969Z,39.4
2023-09-06T10:35:36.905Z,38.4
2023-09-06T10:41:29.539Z,37.7
2023-09-06T10:47:21.663Z,37.3
2023-09-06T10:53:18.450Z,37.3
2023-09-06T10:58:55.740Z,37.4
2023-09-06T11:04:47.416Z,37.4
2023-09-06T11:10:59.071Z,37.2
2023-09-06T11:16:51.525Z,36.7
2023-09-06T11:22:44.529Z,35.9
2023-09-06T11:28:20.888Z,34.8
2023-09-06T11:34:15.325Z,33.8
2023-09-06T11:40:06.371Z,33.6
2023-09-06T11:45:58.452Z,35.6
2023-09-06T11:51:51.902Z,39.5
2023-09-06T11:58:00.812Z,41.3
2023-09-06T12:03:53.725Z,40.3
2023-09-06T12:10:02.550Z,38.9
2023-09-06T12:15:55.171Z,37.3
2023-09-06T12:21:35.534Z,35.8
2023-09-06T12:27:12.406Z,34.8
2023-09-06T12:33:00.992Z,34.2
2023-09-06T12:38:54.812Z,33.8
2023-09-06T12:44:49.568Z,33.3
2023-09-06T12:50:42.110Z,33.1
2023-09-06T12:56:37.478Z,33.4
2023-09-06T13:02:30.541Z,33.8
2023-09-06T13:08:23.330Z,33.6
2023-09-06T13:14:18.615Z,33.1
2023-09-06T13:19:57.685Z,32.5
2023-09-06T13:25:49.420Z,31.8
2023-09-06T13:31:41.357Z,30.9
2023-09-06T13:37:35.745Z,29.9
2023-09-06T13:43:29.520Z,29.2
2023-09-06T13:49:23.346Z,28.6
2023-09-06T13:55:16.175Z,28.1
2023-09-06T14:06:46.261Z,27.6
2023-09-06T14:12:38.384Z,27.3
2023-09-06T14:18:30.601Z,27
2023-09-06T14:24:07.765Z,26.8
2023-09-06T14:30:01.344Z,26.5
2023-09-06T14:35:53.966Z,26.3
2023-09-06T14:41:46.283Z,26.3
2023-09-06T14:47:23.663Z,26.4
2023-09-06T14:53:15.539Z,26.7
2023-09-06T14:59:11.885Z,27.3
2023-09-06T15:04:52.832Z,27.8
2023-09-06T15:11:05.869Z,27.8
2023-09-06T15:16:41.336Z,27.6
2023-09-06T15:22:46.531Z,27.5
2023-09-06T15:28:37.832Z,27.4
2023-09-06T15:34:29.760Z,27.3
2023-09-06T15:40:21.374Z,27.1
2023-09-06T15:46:12.459Z,26.9
2023-09-06T15:52:04.869Z,26.8
2023-09-06T15:57:57.142Z,26.6
2023-09-06T16:04:08.322Z,26.3
2023-09-06T16:10:01.634Z,26
2023-09-06T16:15:56.899Z,25.7
2023-09-06T16:21:51.258Z,25.3
2023-09-06T16:27:42.436Z,24.9
2023-09-06T16:33:36.743Z,24.6
2023-09-06T16:39:30.141Z,24.1
2023-09-06T16:45:21.660Z,23.8
2023-09-06T16:51:16.435Z,23.3
2023-09-06T16:57:08.623Z,22.9
2023-09-06T17:03:01.765Z,22.6
2023-09-06T17:08:54.002Z,22.4
2023-09-06T17:14:44.664Z,22.1
2023-09-06T17:20:38.954Z,21.8
2023-09-06T17:26:41.605Z,21.5
2023-09-06T17:32:32.567Z,21.3
2023-09-06T17:44:00.340Z,21.1
2023-09-06T17:49:53.302Z,20.9
2023-09-06T17:55:45.747Z,20.9
2023-09-06T18:01:40.521Z,20.9
2023-09-06T18:07:36.730Z,20.8
2023-09-06T18:13:28.667Z,20.8
2023-09-06T18:19:21.288Z,20.8
2023-09-06T18:25:15.375Z,20.8
2023-09-06T18:31:06.104Z,20.8
2023-09-06T18:36:43.225Z,20.8
2023-09-06T18:42:34.225Z,20.8
2023-09-06T18:48:11.932Z,20.7
2023-09-06T18:54:04.644Z,20.7
2023-09-06T19:00:07.825Z,20.6
2023-09-06T19:06:02.653Z,20.6
2023-09-06T19:11:55.132Z,20.6
2023-09-06T19:17:48.991Z,20.5
2023-09-06T19:23:40.230Z,20.5
2023-09-06T19:29:33.212Z,20.4
2023-09-06T19:35:29.770Z,20.4
2023-09-06T19:41:21.281Z,20.4
2023-09-06T19:46:58.287Z,20.4
2023-09-06T19:53:07.862Z,20.4
2023-09-06T19:58:59.089Z,20.4
2023-09-06T20:04:53.911Z,20.3
2023-09-06T20:10:31.083Z,20.3
2023-09-06T20:16:09.182Z,20.3
2023-09-06T20:22:01.254Z,20.3
2023-09-06T20:27:52.675Z,20.3
2023-09-06T20:33:44.610Z,20.3
2023-09-06T20:39:36.995Z,20.3
2023-09-06T20:45:28.616Z,20.3
2023-09-06T20:51:21.297Z,20.2
2023-09-06T20:57:13.029Z,20.1
2023-09-06T21:03:05.161Z,20.1
2023-09-06T21:08:44.200Z,20.1
2023-09-06T21:14:20.672Z,20.1
2023-09-06T21:19:59.252Z,20.1
2023-09-06T21:25:50.322Z,20
2023-09-06T21:31:53.264Z,19.9
2023-09-06T21:37:45.135Z,19.9
2023-09-06T21:43:50.635Z,19.9
2023-09-06T21:49:44.176Z,19.9
2023-09-06T21:55:35.437Z,19.9
2023-09-06T22:01:42.873Z,19.8
2023-09-06T22:07:36.436Z,19.8
2023-09-06T22:13:27.867Z,19.8
2023-09-06T22:19:19.656Z,19.7
2023-09-06T22:25:11.813Z,19.6
2023-09-06T22:31:04.248Z,19.6
2023-09-06T22:36:56.333Z,19.6
2023-09-06T22:42:33.301Z,19.6
2023-09-06T22:48:34.540Z,19.6
2023-09-06T22:54:32.685Z,19.6
2023-09-06T23:00:25.278Z,19.5
2023-09-06T23:06:21.301Z,19.5
2023-09-06T23:11:58.024Z,19.4
2023-09-06T23:17:35.361Z,19.4
2023-09-06T23:23:27.926Z,19.4
2023-09-06T23:29:04.945Z,19.4
2023-09-06T23:34:57.917Z,19.4
2023-09-06T23:40:51.110Z,19.4
2023-09-06T23:46:27.102Z,19.4
2023-09-06T23:52:04.816Z,19.4
2023-09-06T23:57:53.694Z,19.4
